createdAt,value
2022-07-28T00:00:16.457Z,17.00
2022-07-28T00:02:44.057Z,17.12
2022-07-28T00:05:12.341Z,16.91
2022-07-28T00:07:39.857Z,17.08
2022-07-28T00:10:08.149Z,17.18
2022-07-28T00:12:37.085Z,17.25
2022-07-28T00:15:05.392Z,17.19
2022-07-28T00:17:32.888Z,18.05
2022-07-28T00:20:00.475Z,17.45
2022-07-28T00:22:27.967Z,17.81
2022-07-28T00:24:55.449Z,18.27
2022-07-28T00:27:23.042Z,17.91
2022-07-28T00:29:52.066Z,17.14
2022-07-28T00:32:20.396Z,17.16
2022-07-28T00:34:48.223Z,17.49
2022-07-28T00:37:15.767Z,17.39
2022-07-28T00:39:43.403Z,17.40
2022-07-28T00:42:12.206Z,17.14
2022-07-28T00:44:42.067Z,17.31
2022-07-28T00:47:11.831Z,17.25
2022-07-28T00:49:39.971Z,17.59
2022-07-28T00:52:10.012Z,17.57
2022-07-28T00:54:37.765Z,17.84
2022-07-28T00:57:05.768Z,17.57
2022-07-28T00:59:33.922Z,17.61
2022-07-28T01:02:02.885Z,18.08
2022-07-28T01:04:32.022Z,17.94
2022-07-28T01:07:09.556Z,17.79
2022-07-28T01:09:48.573Z,17.58
2022-07-28T01:12:27.840Z,18.09
2022-07-28T01:15:02.480Z,18.42
2022-07-28T01:17:36.147Z,17.59
2022-07-28T01:20:14.215Z,17.87
2022-07-28T01:22:46.695Z,17.80
2022-07-28T01:25:22.538Z,17.13
2022-07-28T01:27:59.169Z,17.02
2022-07-28T01:30:35.316Z,16.85
2022-07-28T01:33:10.733Z,16.97
2022-07-28T01:35:48.517Z,16.48
2022-07-28T01:38:19.413Z,16.72
2022-07-28T01:40:48.238Z,16.45
2022-07-28T01:43:21.405Z,16.43
2022-07-28T01:45:50.290Z,16.85
2022-07-28T01:48:19.990Z,17.02
2022-07-28T01:50:49.839Z,17.34
2022-07-28T01:53:18.756Z,17.62
2022-07-28T01:55:48.027Z,17.55
2022-07-28T01:58:18.108Z,16.31
2022-07-28T02:00:51.284Z,16.11
2022-07-28T02:03:22.386Z,16.26
2022-07-28T02:05:53.547Z,16.18
2022-07-28T02:08:22.836Z,16.05
2022-07-28T02:11:09.207Z,16.20
2022-07-28T02:13:40.168Z,16.15
2022-07-28T02:16:10.929Z,16.20
2022-07-28T02:18:40.182Z,16.17
2022-07-28T02:21:08.831Z,16.42
2022-07-28T02:23:38.630Z,16.81
2022-07-28T02:26:10.584Z,17.22
2022-07-28T02:28:40.148Z,16.57
2022-07-28T02:31:14.401Z,15.60
2022-07-28T02:33:58.479Z,15.20
2022-07-28T02:36:30.087Z,14.98
2022-07-28T02:39:07.073Z,14.96
2022-07-28T02:41:39.827Z,15.12
2022-07-28T02:44:15.792Z,15.04
2022-07-28T02:46:47.478Z,15.22
2022-07-28T02:49:19.007Z,15.54
2022-07-28T02:51:48.040Z,15.43
2022-07-28T02:54:18.428Z,15.58
2022-07-28T02:56:53.544Z,15.83
2022-07-28T02:59:22.827Z,15.72
2022-07-28T03:01:52.969Z,15.61
2022-07-28T03:04:41.060Z,15.32
2022-07-28T03:07:11.012Z,15.41
2022-07-28T03:09:40.415Z,15.89
2022-07-28T03:12:08.486Z,15.63
2022-07-28T03:14:36.109Z,15.39
2022-07-28T03:17:06.181Z,15.45
2022-07-28T03:19:35.215Z,15.55
2022-07-28T03:22:02.880Z,15.83
2022-07-28T03:24:33.308Z,15.72
2022-07-28T03:27:05.379Z,16.48
2022-07-28T03:29:34.225Z,16.70
2022-07-28T03:32:02.021Z,16.36
2022-07-28T03:34:30.950Z,16.04
2022-07-28T03:37:03.819Z,16.02
2022-07-28T03:39:37.035Z,15.66
2022-07-28T03:42:05.068Z,15.35
2022-07-28T03:44:33.121Z,15.05
2022-07-28T03:47:00.671Z,15.03
2022-07-28T03:49:28.138Z,14.98
2022-07-28T03:51:56.951Z,14.84
2022-07-28T03:54:24.747Z,14.93
2022-07-28T03:56:52.242Z,15.05
2022-07-28T03:59:20.380Z,15.04
2022-07-28T04:01:48.021Z,15.20
2022-07-28T04:04:16.045Z,15.64
2022-07-28T04:06:43.920Z,15.55
2022-07-28T04:09:12.748Z,15.55
2022-07-28T04:11:40.237Z,15.33
2022-07-28T04:14:10.058Z,15.12
2022-07-28T04:16:40.798Z,15.49
2022-07-28T04:19:08.306Z,15.12
2022-07-28T04:21:35.897Z,15.17
2022-07-28T04:24:03.356Z,15.21
2022-07-28T04:26:32.181Z,15.07
2022-07-28T04:28:59.683Z,15.13
2022-07-28T04:31:31.298Z,15.68
2022-07-28T04:33:59.980Z,15.72
2022-07-28T04:36:27.592Z,15.86
2022-07-28T04:38:56.610Z,15.92
2022-07-28T04:41:24.153Z,16.46
2022-07-28T04:43:52.984Z,17.04
2022-07-28T04:46:20.523Z,17.33
2022-07-28T04:48:48.136Z,17.79
2022-07-28T04:51:15.671Z,17.65
2022-07-28T04:53:43.257Z,17.87
2022-07-28T04:56:11.082Z,17.99
2022-07-28T04:58:38.558Z,18.14
2022-07-28T05:01:07.915Z,18.31
2022-07-28T05:03:36.528Z,18.27
2022-07-28T05:06:04.923Z,18.27
2022-07-28T05:08:32.405Z,18.45
2022-07-28T05:10:59.897Z,18.94
2022-07-28T05:13:33.413Z,18.65
2022-07-28T05:16:02.378Z,19.26
2022-07-28T05:18:31.218Z,20.20
2022-07-28T05:20:58.726Z,20.78
2022-07-28T05:23:26.184Z,20.27
2022-07-28T05:25:54.425Z,21.19
2022-07-28T05:28:21.926Z,21.88
2022-07-28T05:30:49.541Z,21.45
2022-07-28T05:33:17.439Z,21.30
2022-07-28T05:35:53.418Z,20.84
2022-07-28T05:38:21.236Z,20.84
2022-07-28T05:40:48.851Z,20.98
2022-07-28T05:43:16.747Z,21.57
2022-07-28T05:45:44.342Z,21.40
2022-07-28T05:48:11.987Z,20.71
2022-07-28T05:50:39.853Z,20.55
2022-07-28T05:53:08.747Z,21.50
2022-07-28T05:55:36.279Z,21.61
2022-07-28T05:58:24.454Z,21.74
2022-07-28T06:00:52.314Z,21.40
2022-07-28T06:03:19.876Z,21.28
2022-07-28T06:06:14.392Z,21.82
2022-07-28T06:08:36.383Z,22.75
2022-07-28T06:11:09.219Z,22.98
2022-07-28T06:13:37.075Z,23.26
2022-07-28T06:16:08.443Z,22.90
2022-07-28T06:18:38.709Z,22.80
2022-07-28T06:21:06.250Z,22.49
2022-07-28T06:23:33.787Z,22.43
2022-07-28T06:26:02.658Z,23.43
2022-07-28T06:28:30.166Z,23.63
2022-07-28T06:30:57.682Z,23.45
2022-07-28T06:33:25.324Z,22.59
2022-07-28T06:35:52.838Z,23.43
2022-07-28T06:38:21.116Z,23.18
2022-07-28T06:40:48.867Z,24.11
2022-07-28T06:43:17.741Z,23.86
2022-07-28T06:45:45.943Z,23.96
2022-07-28T06:48:14.136Z,24.02
2022-07-28T06:50:42.976Z,23.26
2022-07-28T06:53:10.602Z,24.04
2022-07-28T06:55:38.828Z,24.72
2022-07-28T06:58:09.127Z,24.83
2022-07-28T07:00:38.188Z,24.86
2022-07-28T07:03:09.589Z,24.55
2022-07-28T07:05:37.468Z,23.58
2022-07-28T07:08:05.379Z,24.35
2022-07-28T07:10:32.928Z,24.30
2022-07-28T07:13:00.424Z,24.44
2022-07-28T07:15:28.260Z,24.41
2022-07-28T07:17:57.120Z,24.43
2022-07-28T07:20:24.642Z,24.80
2022-07-28T07:22:52.193Z,25.75
2022-07-28T07:25:20.788Z,26.42
2022-07-28T07:27:48.429Z,27.24
2022-07-28T07:30:17.072Z,28.42
2022-07-28T07:32:44.975Z,28.41
2022-07-28T07:35:13.902Z,28.22
2022-07-28T07:37:41.848Z,27.73
2022-07-28T07:40:10.329Z,28.50
2022-07-28T07:42:37.935Z,28.04
2022-07-28T07:45:06.469Z,28.27
2022-07-28T07:47:34.037Z,27.21
2022-07-28T07:50:04.187Z,27.91
2022-07-28T07:52:33.689Z,28.10
2022-07-28T07:55:01.214Z,28.96
2022-07-28T07:57:29.705Z,29.65
2022-07-28T07:59:57.293Z,29.83
2022-07-28T08:02:24.830Z,30.70
2022-07-28T08:04:52.433Z,28.02
2022-07-28T08:07:22.013Z,29.47
2022-07-28T08:09:51.172Z,29.43
2022-07-28T08:12:25.095Z,29.69
2022-07-28T08:14:53.190Z,29.28
2022-07-28T08:17:25.551Z,30.40
2022-07-28T08:19:53.656Z,32.10
2022-07-28T08:22:21.170Z,32.33
2022-07-28T08:24:48.688Z,30.75
2022-07-28T08:27:17.705Z,29.75
2022-07-28T08:29:45.387Z,29.55
2022-07-28T08:32:12.992Z,29.71
2022-07-28T08:34:40.556Z,30.00
2022-07-28T08:37:08.523Z,29.59
2022-07-28T08:39:37.101Z,31.08
2022-07-28T08:42:07.101Z,29.45
2022-07-28T08:44:42.769Z,26.97
2022-07-28T08:47:12.171Z,28.03
2022-07-28T08:49:42.808Z,29.59
2022-07-28T08:52:12.416Z,31.43
2022-07-28T08:54:43.607Z,30.92
2022-07-28T08:57:17.040Z,31.13
2022-07-28T08:59:46.309Z,32.22
2022-07-28T09:02:14.168Z,32.51
2022-07-28T09:04:43.954Z,32.82
2022-07-28T09:07:12.120Z,31.92
2022-07-28T09:09:40.036Z,31.00
2022-07-28T09:12:08.274Z,30.77
2022-07-28T09:14:36.017Z,30.87
2022-07-28T09:17:05.457Z,31.69
2022-07-28T09:19:34.403Z,29.88
2022-07-28T09:22:04.376Z,30.16
2022-07-28T09:24:37.094Z,30.12
2022-07-28T09:27:07.754Z,29.72
2022-07-28T09:29:36.130Z,29.22
2022-07-28T09:32:05.483Z,29.23
2022-07-28T09:34:41.574Z,30.16
2022-07-28T09:37:17.541Z,30.74
2022-07-28T09:39:47.968Z,30.83
2022-07-28T09:42:15.967Z,30.24
2022-07-28T09:45:00.060Z,30.65
2022-07-28T09:47:33.269Z,31.12
2022-07-28T09:50:01.042Z,32.56
2022-07-28T09:52:30.323Z,32.81
2022-07-28T09:55:01.946Z,32.16
2022-07-28T09:57:30.921Z,32.14
2022-07-28T10:00:01.469Z,32.15
2022-07-28T10:02:32.504Z,32.99
2022-07-28T10:05:01.437Z,32.76
2022-07-28T10:07:30.120Z,31.14
2022-07-28T10:09:59.060Z,30.14
2022-07-28T10:12:27.878Z,30.60
2022-07-28T10:14:56.854Z,30.45
2022-07-28T10:17:26.319Z,29.60
2022-07-28T10:19:57.659Z,29.16
2022-07-28T10:22:28.437Z,28.74
2022-07-28T10:24:57.513Z,29.39
2022-07-28T10:27:25.962Z,29.56
2022-07-28T10:29:59.358Z,29.38
2022-07-28T10:32:29.493Z,29.57
2022-07-28T10:35:02.545Z,30.38
2022-07-28T10:37:32.685Z,30.10
2022-07-28T10:40:10.061Z,30.55
2022-07-28T10:42:39.556Z,31.23
2022-07-28T10:45:10.303Z,32.29
2022-07-28T10:47:37.864Z,30.05
2022-07-28T10:50:08.535Z,29.71
2022-07-28T10:52:47.386Z,30.16
2022-07-28T10:55:21.818Z,31.02
2022-07-28T10:58:02.034Z,31.35
2022-07-28T11:00:55.447Z,32.00
2022-07-28T11:03:39.972Z,31.67
2022-07-28T11:06:30.121Z,32.28
2022-07-28T11:08:58.747Z,32.70
2022-07-28T11:11:45.941Z,31.25
2022-07-28T11:14:37.169Z,29.81
2022-07-28T11:17:24.046Z,29.21
2022-07-28T11:22:45.590Z,29.64
2022-07-28T11:25:21.084Z,30.50
2022-07-28T11:28:05.843Z,31.34
2022-07-28T11:30:55.633Z,32.04
2022-07-28T11:33:25.086Z,31.46
2022-07-28T11:35:57.977Z,31.79
2022-07-28T11:38:27.888Z,32.57
2022-07-28T11:40:57.377Z,32.59
2022-07-28T11:43:37.466Z,32.11
2022-07-28T11:46:34.435Z,30.71
2022-07-28T11:49:27.778Z,30.53
2022-07-28T11:52:09.787Z,31.51
2022-07-28T11:54:40.671Z,32.86
2022-07-28T11:57:10.847Z,33.86
2022-07-28T12:00:00.165Z,33.05
2022-07-28T12:02:31.573Z,33.05
2022-07-28T12:05:23.634Z,31.44
2022-07-28T12:07:53.590Z,30.64
2022-07-28T12:10:53.966Z,31.78
2022-07-28T12:13:28.561Z,32.69
2022-07-28T12:15:56.145Z,32.19
2022-07-28T12:18:24.758Z,32.19
2022-07-28T12:20:53.743Z,31.43
2022-07-28T12:23:38.732Z,30.65
2022-07-28T12:26:07.653Z,30.64
2022-07-28T12:28:37.701Z,31.70
2022-07-28T12:31:12.430Z,32.63
2022-07-28T12:33:40.207Z,30.46
2022-07-28T12:36:09.259Z,31.72
2022-07-28T12:38:37.047Z,31.96
2022-07-28T12:41:16.468Z,31.24
2022-07-28T12:43:51.224Z,31.38
2022-07-28T12:46:23.672Z,32.10
2022-07-28T12:48:56.668Z,32.42
2022-07-28T12:51:35.573Z,32.77
2022-07-28T12:54:04.379Z,32.48
2022-07-28T12:56:33.719Z,31.66
2022-07-28T12:59:06.314Z,30.82
2022-07-28T13:01:51.351Z,30.95
2022-07-28T13:04:40.568Z,31.02
2022-07-28T13:07:10.644Z,31.83
2022-07-28T13:09:41.642Z,32.71
2022-07-28T13:12:21.835Z,33.65
2022-07-28T13:14:52.672Z,33.72
2022-07-28T13:17:22.047Z,33.68
2022-07-28T13:19:50.658Z,32.21
2022-07-28T13:22:27.604Z,32.09
2022-07-28T13:24:56.895Z,32.06
2022-07-28T13:27:25.930Z,31.58
2022-07-28T13:29:53.960Z,32.03
2022-07-28T13:32:21.587Z,31.90
2022-07-28T13:34:49.210Z,32.34
2022-07-28T13:37:16.782Z,32.23
2022-07-28T13:39:44.359Z,33.62
2022-07-28T13:42:11.977Z,34.84
2022-07-28T13:44:42.177Z,35.01
2022-07-28T13:47:10.091Z,35.35
2022-07-28T13:49:38.186Z,35.81
2022-07-28T13:52:12.927Z,36.20
2022-07-28T13:54:41.076Z,34.10
2022-07-28T13:57:08.648Z,35.07
2022-07-28T13:59:37.900Z,35.42
2022-07-28T14:02:15.050Z,35.26
2022-07-28T14:04:45.945Z,33.04
2022-07-28T14:07:20.562Z,32.26
2022-07-28T14:09:50.185Z,31.79
2022-07-28T14:12:17.754Z,30.13
2022-07-28T14:14:48.433Z,30.29
2022-07-28T14:17:50.232Z,30.18
2022-07-28T14:20:11.304Z,30.37
2022-07-28T14:22:38.908Z,31.17
2022-07-28T14:25:07.402Z,31.86
2022-07-28T14:27:35.168Z,31.96
2022-07-28T14:30:04.155Z,33.47
2022-07-28T14:32:33.565Z,34.29
2022-07-28T14:35:02.337Z,34.26
2022-07-28T14:37:47.103Z,33.91
2022-07-28T14:40:18.527Z,33.55
2022-07-28T14:42:46.031Z,33.43
2022-07-28T14:45:14.245Z,31.41
2022-07-28T14:47:45.348Z,32.58
2022-07-28T14:50:13.518Z,34.18
2022-07-28T14:52:44.752Z,32.26
2022-07-28T14:55:12.960Z,30.24
2022-07-28T14:57:52.107Z,30.73
2022-07-28T15:00:23.394Z,29.37
2022-07-28T15:02:52.916Z,30.53
2022-07-28T15:05:21.088Z,30.53
2022-07-28T15:07:49.370Z,30.95
2022-07-28T15:10:17.124Z,31.00
2022-07-28T15:12:44.804Z,31.08
2022-07-28T15:15:12.866Z,30.99
2022-07-28T15:17:40.522Z,29.65
2022-07-28T15:20:11.373Z,29.76
2022-07-28T15:22:38.929Z,30.27
2022-07-28T15:25:07.176Z,29.23
2022-07-28T15:27:34.657Z,28.20
2022-07-28T15:30:03.416Z,29.24
2022-07-28T15:32:31.622Z,29.74
2022-07-28T15:34:59.670Z,29.63
2022-07-28T15:37:28.548Z,30.07
2022-07-28T15:39:56.112Z,30.50
2022-07-28T15:42:23.679Z,30.54
2022-07-28T15:44:53.159Z,30.40
2022-07-28T15:47:21.998Z,30.75
2022-07-28T15:49:49.471Z,31.00
2022-07-28T15:52:17.004Z,30.91
2022-07-28T15:54:47.716Z,31.14
2022-07-28T15:57:15.210Z,31.86
2022-07-28T15:59:50.100Z,31.10
2022-07-28T16:02:19.291Z,30.69
2022-07-28T16:04:53.344Z,29.61
2022-07-28T16:07:23.289Z,29.59
2022-07-28T16:09:54.629Z,29.48
2022-07-28T16:12:22.774Z,29.58
2022-07-28T16:14:54.083Z,29.15
2022-07-28T16:17:22.534Z,28.33
2022-07-28T16:19:51.185Z,28.08
2022-07-28T16:22:18.919Z,27.95
2022-07-28T16:24:46.533Z,27.99
2022-07-28T16:27:15.752Z,28.64
2022-07-28T16:29:43.289Z,28.16
2022-07-28T16:32:11.169Z,28.14
2022-07-28T16:34:38.731Z,28.07
2022-07-28T16:37:06.366Z,27.81
2022-07-28T16:39:34.246Z,27.55
2022-07-28T16:42:02.753Z,27.89
2022-07-28T16:44:32.184Z,28.27
2022-07-28T16:46:59.798Z,28.32
2022-07-28T16:49:27.650Z,27.98
2022-07-28T16:51:56.049Z,27.99
2022-07-28T16:54:23.873Z,27.42
2022-07-28T16:56:51.787Z,27.56
2022-07-28T16:59:19.319Z,27.64
2022-07-28T17:01:48.256Z,27.75
2022-07-28T17:04:17.366Z,27.74
2022-07-28T17:06:45.289Z,27.87
2022-07-28T17:09:15.826Z,28.28
2022-07-28T17:11:43.772Z,28.16
2022-07-28T17:14:12.553Z,27.84
2022-07-28T17:16:40.338Z,27.76
2022-07-28T17:19:09.554Z,28.18
2022-07-28T17:21:37.392Z,27.42
2022-07-28T17:24:05.866Z,27.22
2022-07-28T17:29:22.421Z,26.75
2022-07-28T17:31:50.221Z,27.01
2022-07-28T17:34:19.415Z,27.10
2022-07-28T17:36:48.049Z,27.02
2022-07-28T17:39:15.511Z,26.82
2022-07-28T17:41:43.039Z,27.31
2022-07-28T17:44:10.509Z,27.51
2022-07-28T17:46:38.624Z,27.35
2022-07-28T17:49:07.901Z,27.01
2022-07-28T17:51:37.430Z,27.12
2022-07-28T17:54:05.402Z,27.06
2022-07-28T17:56:36.505Z,26.50
2022-07-28T17:59:05.943Z,26.74
2022-07-28T18:01:33.502Z,26.52
2022-07-28T18:04:01.337Z,26.50
2022-07-28T18:06:34.337Z,26.30
2022-07-28T18:09:06.332Z,26.19
2022-07-28T18:11:35.965Z,26.25
2022-07-28T18:14:05.577Z,26.11
2022-07-28T18:16:34.052Z,25.89
2022-07-28T18:19:02.155Z,25.86
2022-07-28T18:21:29.860Z,25.60
2022-07-28T18:23:57.397Z,25.57
2022-07-28T18:26:26.288Z,25.43
2022-07-28T18:28:53.770Z,25.32
2022-07-28T18:31:21.757Z,25.20
2022-07-28T18:33:49.350Z,24.99
2022-07-28T18:36:16.848Z,24.99
2022-07-28T18:38:44.323Z,24.98
2022-07-28T18:41:11.785Z,24.73
2022-07-28T18:43:40.583Z,24.99
2022-07-28T18:46:08.344Z,24.56
2022-07-28T18:48:35.900Z,24.89
2022-07-28T18:51:03.383Z,24.45
2022-07-28T18:53:30.906Z,24.75
2022-07-28T18:55:59.127Z,24.45
2022-07-28T18:58:26.663Z,24.20
2022-07-28T19:00:55.512Z,24.17
2022-07-28T19:03:23.074Z,24.28
2022-07-28T19:05:53.678Z,24.30
2022-07-28T19:08:21.511Z,24.56
2022-07-28T19:10:49.336Z,24.14
2022-07-28T19:13:16.846Z,24.59
2022-07-28T19:15:44.511Z,24.32
2022-07-28T19:18:13.412Z,24.16
2022-07-28T19:20:41.237Z,24.02
2022-07-28T19:23:08.751Z,24.13
2022-07-28T19:25:37.599Z,24.20
2022-07-28T19:28:05.404Z,24.21
2022-07-28T19:30:33.090Z,24.21
2022-07-28T19:33:00.787Z,24.17
2022-07-28T19:35:30.225Z,24.04
2022-07-28T19:37:59.882Z,24.44
2022-07-28T19:40:29.615Z,23.91
2022-07-28T19:42:57.444Z,23.91
2022-07-28T19:45:25.179Z,23.50
2022-07-28T19:47:54.459Z,23.19
2022-07-28T19:50:22.260Z,23.05
2022-07-28T19:52:51.239Z,22.91
2022-07-28T19:55:18.890Z,23.06
2022-07-28T19:57:47.141Z,22.83
2022-07-28T20:00:17.231Z,22.63
2022-07-28T20:02:45.729Z,22.58
2022-07-28T20:05:13.543Z,23.11
2022-07-28T20:07:41.080Z,23.22
2022-07-28T20:10:10.314Z,23.08
2022-07-28T20:12:38.083Z,23.21
2022-07-28T20:15:06.018Z,23.26
2022-07-28T20:17:38.917Z,22.75
2022-07-28T20:20:08.585Z,23.26
2022-07-28T20:22:36.201Z,22.99
2022-07-28T20:25:03.924Z,22.91
2022-07-28T20:27:32.784Z,22.87
2022-07-28T20:30:09.616Z,23.24
2022-07-28T20:32:37.796Z,23.09
2022-07-28T20:35:06.327Z,23.53
2022-07-28T20:37:37.313Z,23.11
2022-07-28T20:40:06.955Z,22.91
2022-07-28T20:42:36.690Z,23.48
2022-07-28T20:45:05.304Z,23.44
2022-07-28T20:47:33.272Z,23.24
2022-07-28T20:50:00.901Z,23.02
2022-07-28T20:52:28.592Z,22.41
2022-07-28T20:54:56.142Z,22.51
2022-07-28T20:57:23.891Z,22.18
2022-07-28T20:59:52.846Z,22.10
2022-07-28T21:02:21.384Z,22.34
2022-07-28T21:04:50.487Z,22.41
2022-07-28T21:08:05.093Z,22.31
2022-07-28T21:10:07.580Z,22.56
2022-07-28T21:12:36.942Z,22.26
2022-07-28T21:15:07.207Z,22.43
2022-07-28T21:17:35.297Z,22.63
2022-07-28T21:20:02.981Z,22.62
2022-07-28T21:22:30.784Z,22.49
2022-07-28T21:24:59.045Z,22.49
2022-07-28T21:27:26.571Z,22.54
2022-07-28T21:32:20.939Z,22.17
2022-07-28T21:34:48.566Z,22.11
2022-07-28T21:37:16.106Z,22.09
2022-07-28T21:39:44.202Z,21.69
2022-07-28T21:42:11.726Z,21.78
2022-07-28T21:44:39.245Z,22.12
2022-07-28T21:47:07.005Z,22.26
2022-07-28T21:49:35.876Z,22.34
2022-07-28T21:52:03.425Z,21.92
2022-07-28T21:54:31.018Z,21.94
2022-07-28T21:56:58.730Z,22.23
2022-07-28T21:59:26.347Z,22.47
2022-07-28T22:01:53.913Z,22.67
2022-07-28T22:04:21.874Z,22.53
2022-07-28T22:06:50.990Z,22.76
2022-07-28T22:09:18.493Z,22.70
2022-07-28T22:11:46.172Z,22.94
2022-07-28T22:14:14.065Z,22.88
2022-07-28T22:16:41.853Z,22.70
2022-07-28T22:19:11.760Z,22.71
2022-07-28T22:21:39.356Z,22.66
2022-07-28T22:24:09.719Z,22.41
2022-07-28T22:26:37.301Z,22.59
2022-07-28T22:29:04.820Z,22.59
2022-07-28T22:31:32.402Z,22.19
2022-07-28T22:33:59.969Z,22.33
2022-07-28T22:36:27.597Z,22.12
2022-07-28T22:38:55.524Z,22.34
2022-07-28T22:41:24.586Z,22.36
2022-07-28T22:43:52.233Z,22.17
2022-07-28T22:46:19.843Z,21.80
2022-07-28T22:48:47.544Z,21.94
2022-07-28T22:51:16.079Z,21.88
2022-07-28T22:53:43.572Z,21.99
2022-07-28T22:56:11.839Z,21.81
2022-07-28T22:58:41.010Z,21.87
2022-07-28T23:01:08.612Z,21.96
2022-07-28T23:03:36.753Z,21.65
2022-07-28T23:06:05.871Z,21.55
2022-07-28T23:08:33.489Z,21.90
2022-07-28T23:11:01.021Z,21.74
2022-07-28T23:13:28.612Z,22.08
2022-07-28T23:15:57.523Z,22.49
2022-07-28T23:18:25.056Z,22.78
2022-07-28T23:20:52.720Z,22.92
2022-07-28T23:23:21.147Z,22.47
2022-07-28T23:25:48.700Z,21.96
2022-07-28T23:28:16.266Z,21.95
2022-07-28T23:30:45.413Z,22.27
2022-07-28T23:33:15.629Z,22.30
2022-07-28T23:36:01.831Z,22.43
2022-07-28T23:38:29.370Z,22.46
2022-07-28T23:40:56.858Z,22.20
2022-07-28T23:43:24.350Z,22.59
2022-07-28T23:45:51.874Z,22.38
2022-07-28T23:48:20.712Z,22.13
2022-07-28T23:50:48.255Z,22.24
2022-07-28T23:53:15.757Z,22.37
2022-07-28T23:55:45.085Z,22.27
2022-07-28T23:58:12.580Z,22.48
